sensor_id;sensor_type;location;lat;lon;timestamp;P1;durP1;ratioP1;P2;durP2;ratioP2
22248;SDS011;67538;52.180;5.646;2023-07-22T00:01:35;23.85;;;14.45;;
22248;SDS011;67538;52.180;5.646;2023-07-22T00:04:03;23.38;;;14.75;;
22248;SDS011;67538;52.180;5.646;2023-07-22T00:06:31;24.45;;;15.23;;
22248;SDS011;67538;52.180;5.646;2023-07-22T00:08:58;26.07;;;16.43;;
22248;SDS011;67538;52.180;5.646;2023-07-22T00:11:25;27.00;;;15.80;;
22248;SDS011;67538;52.180;5.646;2023-07-22T00:13:52;26.77;;;15.82;;
22248;SDS011;67538;52.180;5.646;2023-07-22T00:16:20;27.70;;;16.05;;
22248;SDS011;67538;52.180;5.646;2023-07-22T00:18:47;27.50;;;16.60;;
22248;SDS011;67538;52.180;5.646;2023-07-22T00:21:14;25.73;;;16.00;;
22248;SDS011;67538;52.180;5.646;2023-07-22T00:23:43;29.85;;;16.70;;
22248;SDS011;67538;52.180;5.646;2023-07-22T00:26:11;25.80;;;16.27;;
22248;SDS011;67538;52.180;5.646;2023-07-22T00:28:38;27.55;;;16.80;;
22248;SDS011;67538;52.180;5.646;2023-07-22T00:31:06;28.52;;;17.02;;
22248;SDS011;67538;52.180;5.646;2023-07-22T00:33:33;28.88;;;17.08;;
22248;SDS011;67538;52.180;5.646;2023-07-22T00:36:00;27.40;;;16.80;;
22248;SDS011;67538;52.180;5.646;2023-07-22T00:38:28;31.75;;;17.17;;
22248;SDS011;67538;52.180;5.646;2023-07-22T00:40:56;30.85;;;17.75;;
22248;SDS011;67538;52.180;5.646;2023-07-22T00:43:23;29.80;;;17.17;;
22248;SDS011;67538;52.180;5.646;2023-07-22T00:45:51;28.65;;;17.17;;
22248;SDS011;67538;52.180;5.646;2023-07-22T00:48:18;28.33;;;16.85;;
22248;SDS011;67538;52.180;5.646;2023-07-22T00:50:46;30.33;;;17.00;;
22248;SDS011;67538;52.180;5.646;2023-07-22T00:53:13;33.45;;;17.63;;
22248;SDS011;67538;52.180;5.646;2023-07-22T00:55:40;30.05;;;17.45;;
22248;SDS011;67538;52.180;5.646;2023-07-22T00:58:09;28.80;;;17.25;;
22248;SDS011;67538;52.180;5.646;2023-07-22T01:00:36;32.97;;;18.17;;
22248;SDS011;67538;52.180;5.646;2023-07-22T01:03:03;30.67;;;18.10;;
22248;SDS011;67538;52.180;5.646;2023-07-22T01:05:31;32.88;;;18.67;;
22248;SDS011;67538;52.180;5.646;2023-07-22T01:08:00;34.53;;;18.73;;
22248;SDS011;67538;52.180;5.646;2023-07-22T01:10:29;37.73;;;19.80;;
22248;SDS011;67538;52.180;5.646;2023-07-22T01:12:56;32.33;;;18.30;;
22248;SDS011;67538;52.180;5.646;2023-07-22T01:15:25;35.03;;;18.57;;
22248;SDS011;67538;52.180;5.646;2023-07-22T01:17:53;34.65;;;18.80;;
22248;SDS011;67538;52.180;5.646;2023-07-22T01:20:21;39.25;;;19.88;;
22248;SDS011;67538;52.180;5.646;2023-07-22T01:22:52;38.03;;;20.88;;
22248;SDS011;67538;52.180;5.646;2023-07-22T01:25:20;38.30;;;20.52;;
22248;SDS011;67538;52.180;5.646;2023-07-22T01:27:48;36.83;;;19.98;;
22248;SDS011;67538;52.180;5.646;2023-07-22T01:30:15;35.08;;;19.33;;
22248;SDS011;67538;52.180;5.646;2023-07-22T01:32:42;38.25;;;20.80;;
22248;SDS011;67538;52.180;5.646;2023-07-22T01:35:09;37.77;;;19.47;;
22248;SDS011;67538;52.180;5.646;2023-07-22T01:37:36;33.65;;;19.27;;
22248;SDS011;67538;52.180;5.646;2023-07-22T01:40:05;36.70;;;20.08;;
22248;SDS011;67538;52.180;5.646;2023-07-22T01:42:37;37.93;;;20.17;;
22248;SDS011;67538;52.180;5.646;2023-07-22T01:45:04;35.10;;;20.33;;
22248;SDS011;67538;52.180;5.646;2023-07-22T01:47:33;37.20;;;19.90;;
22248;SDS011;67538;52.180;5.646;2023-07-22T01:50:00;34.55;;;19.65;;
22248;SDS011;67538;52.180;5.646;2023-07-22T01:52:28;39.40;;;22.08;;
22248;SDS011;67538;52.180;5.646;2023-07-22T01:54:55;39.10;;;22.08;;
22248;SDS011;67538;52.180;5.646;2023-07-22T01:57:23;38.50;;;22.00;;
22248;SDS011;67538;52.180;5.646;2023-07-22T01:59:50;41.03;;;21.77;;
22248;SDS011;67538;52.180;5.646;2023-07-22T02:02:18;40.33;;;21.45;;
22248;SDS011;67538;52.180;5.646;2023-07-22T02:04:45;36.53;;;21.10;;
22248;SDS011;67538;52.180;5.646;2023-07-22T02:07:12;31.80;;;18.65;;
22248;SDS011;67538;52.180;5.646;2023-07-22T02:09:40;36.35;;;20.67;;
22248;SDS011;67538;52.180;5.646;2023-07-22T02:12:07;38.55;;;21.48;;
22248;SDS011;67538;52.180;5.646;2023-07-22T02:14:37;35.33;;;20.13;;
22248;SDS011;67538;52.180;5.646;2023-07-22T02:17:04;35.28;;;20.35;;
22248;SDS011;67538;52.180;5.646;2023-07-22T02:19:34;39.25;;;21.38;;
22248;SDS011;67538;52.180;5.646;2023-07-22T02:22:02;39.13;;;21.10;;
22248;SDS011;67538;52.180;5.646;2023-07-22T02:24:29;38.95;;;22.13;;
22248;SDS011;67538;52.180;5.646;2023-07-22T02:26:57;42.85;;;23.30;;
22248;SDS011;67538;52.180;5.646;2023-07-22T02:29:24;42.92;;;22.95;;
22248;SDS011;67538;52.180;5.646;2023-07-22T02:31:52;43.57;;;23.43;;
22248;SDS011;67538;52.180;5.646;2023-07-22T02:34:19;43.70;;;23.35;;
22248;SDS011;67538;52.180;5.646;2023-07-22T02:36:47;43.07;;;24.03;;
22248;SDS011;67538;52.180;5.646;2023-07-22T02:39:14;42.72;;;23.83;;
22248;SDS011;67538;52.180;5.646;2023-07-22T02:41:41;45.38;;;23.88;;
22248;SDS011;67538;52.180;5.646;2023-07-22T02:44:08;43.70;;;24.42;;
22248;SDS011;67538;52.180;5.646;2023-07-22T02:46:35;43.20;;;24.20;;
22248;SDS011;67538;52.180;5.646;2023-07-22T02:49:04;45.22;;;24.10;;
22248;SDS011;67538;52.180;5.646;2023-07-22T02:51:31;42.33;;;23.70;;
22248;SDS011;67538;52.180;5.646;2023-07-22T02:53:58;43.58;;;23.98;;
22248;SDS011;67538;52.180;5.646;2023-07-22T02:56:25;42.28;;;23.40;;
22248;SDS011;67538;52.180;5.646;2023-07-22T02:58:52;38.38;;;21.60;;
22248;SDS011;67538;52.180;5.646;2023-07-22T03:01:19;35.50;;;20.27;;
22248;SDS011;67538;52.180;5.646;2023-07-22T03:03:46;31.25;;;18.60;;
22248;SDS011;67538;52.180;5.646;2023-07-22T03:06:15;36.33;;;21.00;;
22248;SDS011;67538;52.180;5.646;2023-07-22T03:08:42;34.53;;;21.20;;
22248;SDS011;67538;52.180;5.646;2023-07-22T03:11:09;36.72;;;21.17;;
22248;SDS011;67538;52.180;5.646;2023-07-22T03:13:36;35.55;;;20.75;;
22248;SDS011;67538;52.180;5.646;2023-07-22T03:16:03;36.55;;;20.83;;
22248;SDS011;67538;52.180;5.646;2023-07-22T03:18:30;42.15;;;23.15;;
22248;SDS011;67538;52.180;5.646;2023-07-22T03:20:57;34.78;;;20.33;;
22248;SDS011;67538;52.180;5.646;2023-07-22T03:23:26;41.55;;;23.65;;
22248;SDS011;67538;52.180;5.646;2023-07-22T03:25:53;40.97;;;22.00;;
22248;SDS011;67538;52.180;5.646;2023-07-22T03:28:20;38.67;;;21.98;;
22248;SDS011;67538;52.180;5.646;2023-07-22T03:30:47;43.28;;;22.95;;
22248;SDS011;67538;52.180;5.646;2023-07-22T03:33:14;35.42;;;20.95;;
22248;SDS011;67538;52.180;5.646;2023-07-22T03:35:41;38.15;;;21.35;;
22248;SDS011;67538;52.180;5.646;2023-07-22T03:38:08;36.45;;;21.02;;
22248;SDS011;67538;52.180;5.646;2023-07-22T03:40:36;34.97;;;21.35;;
22248;SDS011;67538;52.180;5.646;2023-07-22T03:43:03;39.90;;;23.02;;
22248;SDS011;67538;52.180;5.646;2023-07-22T03:45:31;41.33;;;23.45;;
22248;SDS011;67538;52.180;5.646;2023-07-22T03:47:58;42.50;;;23.42;;
22248;SDS011;67538;52.180;5.646;2023-07-22T03:50:26;39.43;;;22.20;;
22248;SDS011;67538;52.180;5.646;2023-07-22T03:52:54;38.22;;;21.65;;
22248;SDS011;67538;52.180;5.646;2023-07-22T03:55:21;35.83;;;21.03;;
22248;SDS011;67538;52.180;5.646;2023-07-22T03:57:49;36.97;;;21.40;;
22248;SDS011;67538;52.180;5.646;2023-07-22T04:00:16;38.88;;;21.98;;
22248;SDS011;67538;52.180;5.646;2023-07-22T04:02:44;33.30;;;19.53;;
22248;SDS011;67538;52.180;5.646;2023-07-22T04:05:11;32.00;;;19.17;;
22248;SDS011;67538;52.180;5.646;2023-07-22T04:07:39;31.98;;;18.92;;
22248;SDS011;67538;52.180;5.646;2023-07-22T04:10:06;28.70;;;18.38;;
22248;SDS011;67538;52.180;5.646;2023-07-22T04:12:33;35.10;;;20.17;;
22248;SDS011;67538;52.180;5.646;2023-07-22T04:15:02;34.58;;;20.13;;
22248;SDS011;67538;52.180;5.646;2023-07-22T04:17:30;35.57;;;20.90;;
22248;SDS011;67538;52.180;5.646;2023-07-22T04:19:57;33.10;;;18.98;;
22248;SDS011;67538;52.180;5.646;2023-07-22T04:22:24;39.97;;;22.15;;
22248;SDS011;67538;52.180;5.646;2023-07-22T04:24:51;33.17;;;19.83;;
22248;SDS011;67538;52.180;5.646;2023-07-22T04:27:18;32.30;;;18.25;;
22248;SDS011;67538;52.180;5.646;2023-07-22T04:29:45;39.90;;;18.10;;
22248;SDS011;67538;52.180;5.646;2023-07-22T04:32:13;43.80;;;19.10;;
22248;SDS011;67538;52.180;5.646;2023-07-22T04:34:41;39.15;;;19.75;;
22248;SDS011;67538;52.180;5.646;2023-07-22T04:37:08;35.13;;;20.58;;
22248;SDS011;67538;52.180;5.646;2023-07-22T04:39:36;39.85;;;21.55;;
22248;SDS011;67538;52.180;5.646;2023-07-22T04:42:04;44.75;;;23.73;;
22248;SDS011;67538;52.180;5.646;2023-07-22T04:44:31;47.40;;;23.85;;
22248;SDS011;67538;52.180;5.646;2023-07-22T04:46:58;45.35;;;24.08;;
22248;SDS011;67538;52.180;5.646;2023-07-22T04:49:27;42.60;;;23.75;;
22248;SDS011;67538;52.180;5.646;2023-07-22T04:51:54;48.73;;;24.93;;
22248;SDS011;67538;52.180;5.646;2023-07-22T04:54:21;42.65;;;24.05;;
22248;SDS011;67538;52.180;5.646;2023-07-22T04:56:48;48.53;;;23.75;;
22248;SDS011;67538;52.180;5.646;2023-07-22T04:59:15;45.08;;;23.95;;
22248;SDS011;67538;52.180;5.646;2023-07-22T05:01:42;49.10;;;25.13;;
22248;SDS011;67538;52.180;5.646;2023-07-22T05:04:09;49.47;;;26.17;;
22248;SDS011;67538;52.180;5.646;2023-07-22T05:06:38;59.08;;;26.30;;
22248;SDS011;67538;52.180;5.646;2023-07-22T05:09:05;57.78;;;26.65;;
22248;SDS011;67538;52.180;5.646;2023-07-22T05:11:32;54.80;;;27.67;;
22248;SDS011;67538;52.180;5.646;2023-07-22T05:13:59;52.95;;;26.88;;
22248;SDS011;67538;52.180;5.646;2023-07-22T05:16:26;54.85;;;26.92;;
22248;SDS011;67538;52.180;5.646;2023-07-22T05:18:53;56.38;;;27.35;;
22248;SDS011;67538;52.180;5.646;2023-07-22T05:21:20;65.05;;;26.48;;
22248;SDS011;67538;52.180;5.646;2023-07-22T05:23:49;61.25;;;27.50;;
22248;SDS011;67538;52.180;5.646;2023-07-22T05:26:16;60.03;;;27.33;;
22248;SDS011;67538;52.180;5.646;2023-07-22T05:28:43;53.80;;;27.15;;
22248;SDS011;67538;52.180;5.646;2023-07-22T05:31:10;55.42;;;27.33;;
22248;SDS011;67538;52.180;5.646;2023-07-22T05:33:37;56.22;;;27.05;;
22248;SDS011;67538;52.180;5.646;2023-07-22T05:36:04;56.30;;;27.33;;
22248;SDS011;67538;52.180;5.646;2023-07-22T05:38:31;52.60;;;27.00;;
22248;SDS011;67538;52.180;5.646;2023-07-22T05:41:00;57.67;;;26.93;;
22248;SDS011;67538;52.180;5.646;2023-07-22T05:43:27;60.22;;;27.95;;
22248;SDS011;67538;52.180;5.646;2023-07-22T05:45:54;57.75;;;27.45;;
22248;SDS011;67538;52.180;5.646;2023-07-22T05:48:21;56.35;;;27.17;;
22248;SDS011;67538;52.180;5.646;2023-07-22T05:50:48;58.33;;;27.77;;
22248;SDS011;67538;52.180;5.646;2023-07-22T05:53:15;57.30;;;27.25;;
22248;SDS011;67538;52.180;5.646;2023-07-22T05:55:42;54.57;;;28.47;;
22248;SDS011;67538;52.180;5.646;2023-07-22T05:58:16;57.47;;;27.30;;
22248;SDS011;67538;52.180;5.646;2023-07-22T06:00:43;62.35;;;28.02;;
22248;SDS011;67538;52.180;5.646;2023-07-22T06:03:11;56.33;;;27.00;;
22248;SDS011;67538;52.180;5.646;2023-07-22T06:05:38;58.00;;;27.52;;
22248;SDS011;67538;52.180;5.646;2023-07-22T06:08:05;55.83;;;27.80;;
22248;SDS011;67538;52.180;5.646;2023-07-22T06:10:32;55.35;;;27.73;;
22248;SDS011;67538;52.180;5.646;2023-07-22T06:13:02;55.08;;;28.35;;
22248;SDS011;67538;52.180;5.646;2023-07-22T06:15:31;57.70;;;28.02;;
22248;SDS011;67538;52.180;5.646;2023-07-22T06:17:58;59.17;;;28.17;;
22248;SDS011;67538;52.180;5.646;2023-07-22T06:20:26;56.67;;;28.60;;
22248;SDS011;67538;52.180;5.646;2023-07-22T06:22:53;63.72;;;28.10;;
22248;SDS011;67538;52.180;5.646;2023-07-22T06:25:21;57.35;;;27.73;;
22248;SDS011;67538;52.180;5.646;2023-07-22T06:27:48;58.35;;;27.83;;
22248;SDS011;67538;52.180;5.646;2023-07-22T06:30:15;54.75;;;27.58;;
22248;SDS011;67538;52.180;5.646;2023-07-22T06:32:43;57.10;;;27.45;;
22248;SDS011;67538;52.180;5.646;2023-07-22T06:35:11;57.72;;;26.63;;
22248;SDS011;67538;52.180;5.646;2023-07-22T06:37:38;55.03;;;27.85;;
22248;SDS011;67538;52.180;5.646;2023-07-22T06:40:05;54.80;;;27.05;;
22248;SDS011;67538;52.180;5.646;2023-07-22T06:42:33;53.58;;;26.15;;
22248;SDS011;67538;52.180;5.646;2023-07-22T06:45:00;49.97;;;26.60;;
22248;SDS011;67538;52.180;5.646;2023-07-22T06:47:28;50.80;;;25.30;;
22248;SDS011;67538;52.180;5.646;2023-07-22T06:49:56;53.77;;;26.83;;
22248;SDS011;67538;52.180;5.646;2023-07-22T06:52:23;52.75;;;26.85;;
22248;SDS011;67538;52.180;5.646;2023-07-22T06:54:50;53.90;;;26.83;;
22248;SDS011;67538;52.180;5.646;2023-07-22T06:57:17;52.38;;;27.15;;
22248;SDS011;67538;52.180;5.646;2023-07-22T06:59:45;55.57;;;26.33;;
22248;SDS011;67538;52.180;5.646;2023-07-22T07:02:12;52.45;;;26.17;;
22248;SDS011;67538;52.180;5.646;2023-07-22T07:04:39;50.47;;;25.42;;
22248;SDS011;67538;52.180;5.646;2023-07-22T07:07:07;47.30;;;26.35;;
22248;SDS011;67538;52.180;5.646;2023-07-22T07:09:34;62.40;;;25.23;;
22248;SDS011;67538;52.180;5.646;2023-07-22T07:12:01;48.30;;;25.10;;
22248;SDS011;67538;52.180;5.646;2023-07-22T07:14:29;49.40;;;24.70;;
22248;SDS011;67538;52.180;5.646;2023-07-22T07:16:56;46.72;;;24.42;;
22248;SDS011;67538;52.180;5.646;2023-07-22T07:19:23;49.15;;;24.15;;
22248;SDS011;67538;52.180;5.646;2023-07-22T07:21:50;43.30;;;22.75;;
22248;SDS011;67538;52.180;5.646;2023-07-22T07:24:18;43.20;;;22.85;;
22248;SDS011;67538;52.180;5.646;2023-07-22T07:26:46;40.35;;;22.50;;
22248;SDS011;67538;52.180;5.646;2023-07-22T07:29:13;43.10;;;22.65;;
22248;SDS011;67538;52.180;5.646;2023-07-22T07:31:40;49.22;;;25.73;;
22248;SDS011;67538;52.180;5.646;2023-07-22T07:34:07;42.53;;;21.13;;
22248;SDS011;67538;52.180;5.646;2023-07-22T07:36:34;40.08;;;24.20;;
22248;SDS011;67538;52.180;5.646;2023-07-22T07:39:01;51.17;;;30.42;;
22248;SDS011;67538;52.180;5.646;2023-07-22T07:41:30;47.40;;;28.15;;
22248;SDS011;67538;52.180;5.646;2023-07-22T07:43:57;34.73;;;18.73;;
22248;SDS011;67538;52.180;5.646;2023-07-22T07:46:26;34.00;;;18.80;;
22248;SDS011;67538;52.180;5.646;2023-07-22T07:48:54;36.60;;;18.75;;
22248;SDS011;67538;52.180;5.646;2023-07-22T07:51:23;31.93;;;18.87;;
22248;SDS011;67538;52.180;5.646;2023-07-22T07:53:52;35.45;;;19.20;;
22248;SDS011;67538;52.180;5.646;2023-07-22T07:56:19;34.35;;;19.15;;
22248;SDS011;67538;52.180;5.646;2023-07-22T07:58:49;36.38;;;19.90;;
22248;SDS011;67538;52.180;5.646;2023-07-22T08:01:17;42.30;;;20.45;;
22248;SDS011;67538;52.180;5.646;2023-07-22T08:03:44;35.38;;;19.17;;
22248;SDS011;67538;52.180;5.646;2023-07-22T08:06:11;35.15;;;17.45;;
22248;SDS011;67538;52.180;5.646;2023-07-22T08:08:39;29.70;;;15.38;;
22248;SDS011;67538;52.180;5.646;2023-07-22T08:11:06;30.23;;;16.80;;
22248;SDS011;67538;52.180;5.646;2023-07-22T08:13:34;28.95;;;16.13;;
22248;SDS011;67538;52.180;5.646;2023-07-22T08:16:04;35.20;;;17.63;;
22248;SDS011;67538;52.180;5.646;2023-07-22T08:18:32;24.63;;;15.10;;
22248;SDS011;67538;52.180;5.646;2023-07-22T08:21:00;27.88;;;15.20;;
22248;SDS011;67538;52.180;5.646;2023-07-22T08:23:28;28.70;;;15.20;;
22248;SDS011;67538;52.180;5.646;2023-07-22T08:25:56;25.88;;;15.00;;
22248;SDS011;67538;52.180;5.646;2023-07-22T08:28:23;27.63;;;14.25;;
22248;SDS011;67538;52.180;5.646;2023-07-22T08:30:50;30.20;;;15.17;;
22248;SDS011;67538;52.180;5.646;2023-07-22T08:33:22;31.00;;;15.23;;
22248;SDS011;67538;52.180;5.646;2023-07-22T08:35:50;28.70;;;14.75;;
22248;SDS011;67538;52.180;5.646;2023-07-22T08:38:17;29.33;;;14.95;;
22248;SDS011;67538;52.180;5.646;2023-07-22T08:40:47;26.75;;;14.65;;
22248;SDS011;67538;52.180;5.646;2023-07-22T08:43:16;34.72;;;13.30;;
22248;SDS011;67538;52.180;5.646;2023-07-22T08:45:47;23.73;;;13.32;;
22248;SDS011;67538;52.180;5.646;2023-07-22T08:48:15;50.75;;;13.98;;
22248;SDS011;67538;52.180;5.646;2023-07-22T08:50:46;24.83;;;13.05;;
22248;SDS011;67538;52.180;5.646;2023-07-22T08:53:18;27.42;;;11.55;;
22248;SDS011;67538;52.180;5.646;2023-07-22T08:55:45;22.20;;;11.50;;
22248;SDS011;67538;52.180;5.646;2023-07-22T08:58:14;19.75;;;11.18;;
22248;SDS011;67538;52.180;5.646;2023-07-22T09:00:41;25.67;;;11.45;;
22248;SDS011;67538;52.180;5.646;2023-07-22T09:03:09;32.33;;;11.40;;
22248;SDS011;67538;52.180;5.646;2023-07-22T09:05:37;29.23;;;9.65;;
22248;SDS011;67538;52.180;5.646;2023-07-22T09:08:07;17.65;;;8.68;;
22248;SDS011;67538;52.180;5.646;2023-07-22T09:10:34;16.27;;;8.45;;
22248;SDS011;67538;52.180;5.646;2023-07-22T09:13:03;19.98;;;8.38;;
22248;SDS011;67538;52.180;5.646;2023-07-22T09:15:31;16.92;;;8.45;;
22248;SDS011;67538;52.180;5.646;2023-07-22T09:18:01;16.90;;;8.97;;
22248;SDS011;67538;52.180;5.646;2023-07-22T09:20:28;18.67;;;9.25;;
22248;SDS011;67538;52.180;5.646;2023-07-22T09:22:56;14.27;;;7.57;;
22248;SDS011;67538;52.180;5.646;2023-07-22T09:25:25;16.38;;;7.70;;
22248;SDS011;67538;52.180;5.646;2023-07-22T09:27:54;15.35;;;7.63;;
22248;SDS011;67538;52.180;5.646;2023-07-22T09:30:25;16.43;;;8.20;;
22248;SDS011;67538;52.180;5.646;2023-07-22T09:32:53;14.73;;;7.27;;
22248;SDS011;67538;52.180;5.646;2023-07-22T09:35:22;12.87;;;7.30;;
22248;SDS011;67538;52.180;5.646;2023-07-22T09:37:50;14.52;;;7.22;;
22248;SDS011;67538;52.180;5.646;2023-07-22T09:40:20;16.17;;;7.53;;
22248;SDS011;67538;52.180;5.646;2023-07-22T09:42:49;18.33;;;7.35;;
22248;SDS011;67538;52.180;5.646;2023-07-22T09:45:17;16.77;;;7.43;;
22248;SDS011;67538;52.180;5.646;2023-07-22T09:47:46;17.65;;;8.38;;
22248;SDS011;67538;52.180;5.646;2023-07-22T09:50:15;16.67;;;7.40;;
22248;SDS011;67538;52.180;5.646;2023-07-22T09:52:44;13.90;;;6.95;;
22248;SDS011;67538;52.180;5.646;2023-07-22T09:55:12;13.30;;;6.85;;
22248;SDS011;67538;52.180;5.646;2023-07-22T09:57:43;18.45;;;5.53;;
22248;SDS011;67538;52.180;5.646;2023-07-22T10:00:13;12.30;;;6.70;;
22248;SDS011;67538;52.180;5.646;2023-07-22T10:02:41;10.82;;;5.57;;
22248;SDS011;67538;52.180;5.646;2023-07-22T10:05:11;15.82;;;6.60;;
22248;SDS011;67538;52.180;5.646;2023-07-22T10:07:42;15.85;;;7.13;;
22248;SDS011;67538;52.180;5.646;2023-07-22T10:10:12;11.68;;;5.35;;
22248;SDS011;67538;52.180;5.646;2023-07-22T10:12:41;11.48;;;6.03;;
22248;SDS011;67538;52.180;5.646;2023-07-22T10:15:09;15.07;;;7.13;;
22248;SDS011;67538;52.180;5.646;2023-07-22T10:17:38;18.20;;;7.27;;
22248;SDS011;67538;52.180;5.646;2023-07-22T10:20:06;14.82;;;6.18;;
22248;SDS011;67538;52.180;5.646;2023-07-22T10:22:35;12.47;;;6.90;;
22248;SDS011;67538;52.180;5.646;2023-07-22T10:25:06;17.38;;;7.38;;
22248;SDS011;67538;52.180;5.646;2023-07-22T10:27:34;20.10;;;7.35;;
22248;SDS011;67538;52.180;5.646;2023-07-22T10:30:05;16.23;;;6.80;;
22248;SDS011;67538;52.180;5.646;2023-07-22T10:32:33;16.83;;;7.30;;
22248;SDS011;67538;52.180;5.646;2023-07-22T10:35:03;15.73;;;8.20;;
22248;SDS011;67538;52.180;5.646;2023-07-22T10:37:31;15.80;;;7.60;;
22248;SDS011;67538;52.180;5.646;2023-07-22T10:39:59;16.27;;;7.75;;
22248;SDS011;67538;52.180;5.646;2023-07-22T10:42:27;16.70;;;8.15;;
22248;SDS011;67538;52.180;5.646;2023-07-22T10:44:59;16.92;;;8.50;;
22248;SDS011;67538;52.180;5.646;2023-07-22T10:47:31;16.17;;;8.10;;
22248;SDS011;67538;52.180;5.646;2023-07-22T10:50:06;15.15;;;8.05;;
22248;SDS011;67538;52.180;5.646;2023-07-22T10:52:38;16.45;;;8.05;;
22248;SDS011;67538;52.180;5.646;2023-07-22T10:55:13;17.30;;;8.40;;
22248;SDS011;67538;52.180;5.646;2023-07-22T10:57:47;17.60;;;8.02;;
22248;SDS011;67538;52.180;5.646;2023-07-22T11:00:18;14.70;;;6.88;;
22248;SDS011;67538;52.180;5.646;2023-07-22T11:02:47;15.15;;;6.80;;
22248;SDS011;67538;52.180;5.646;2023-07-22T11:11:03;18.63;;;6.78;;
22248;SDS011;67538;52.180;5.646;2023-07-22T11:13:34;16.52;;;6.10;;
22248;SDS011;67538;52.180;5.646;2023-07-22T11:16:04;26.85;;;6.75;;
22248;SDS011;67538;52.180;5.646;2023-07-22T11:18:37;24.13;;;6.80;;
22248;SDS011;67538;52.180;5.646;2023-07-22T11:21:09;15.73;;;7.55;;
22248;SDS011;67538;52.180;5.646;2023-07-22T11:23:36;17.27;;;7.25;;
22248;SDS011;67538;52.180;5.646;2023-07-22T11:26:04;19.80;;;7.75;;
22248;SDS011;67538;52.180;5.646;2023-07-22T11:28:31;13.00;;;7.05;;
22248;SDS011;67538;52.180;5.646;2023-07-22T11:30:58;12.93;;;6.67;;
22248;SDS011;67538;52.180;5.646;2023-07-22T11:33:26;16.08;;;6.80;;
22248;SDS011;67538;52.180;5.646;2023-07-22T11:36:04;13.32;;;7.10;;
22248;SDS011;67538;52.180;5.646;2023-07-22T11:38:32;14.15;;;6.80;;
22248;SDS011;67538;52.180;5.646;2023-07-22T11:41:00;18.60;;;7.50;;
22248;SDS011;67538;52.180;5.646;2023-07-22T11:43:28;12.00;;;7.03;;
22248;SDS011;67538;52.180;5.646;2023-07-22T11:45:55;15.17;;;7.07;;
22248;SDS011;67538;52.180;5.646;2023-07-22T11:48:22;12.48;;;6.53;;
22248;SDS011;67538;52.180;5.646;2023-07-22T11:50:49;14.23;;;7.05;;
22248;SDS011;67538;52.180;5.646;2023-07-22T11:53:16;14.00;;;6.50;;
22248;SDS011;67538;52.180;5.646;2023-07-22T11:55:44;11.15;;;6.95;;
22248;SDS011;67538;52.180;5.646;2023-07-22T11:58:11;16.42;;;7.55;;
22248;SDS011;67538;52.180;5.646;2023-07-22T12:00:41;14.43;;;7.03;;
22248;SDS011;67538;52.180;5.646;2023-07-22T12:03:09;15.82;;;6.82;;
22248;SDS011;67538;52.180;5.646;2023-07-22T12:05:36;11.80;;;6.47;;
22248;SDS011;67538;52.180;5.646;2023-07-22T12:08:03;14.00;;;6.87;;
22248;SDS011;67538;52.180;5.646;2023-07-22T12:10:31;14.40;;;6.33;;
22248;SDS011;67538;52.180;5.646;2023-07-22T12:13:01;12.27;;;6.40;;
22248;SDS011;67538;52.180;5.646;2023-07-22T12:15:28;11.85;;;6.28;;
22248;SDS011;67538;52.180;5.646;2023-07-22T12:17:56;8.30;;;4.73;;
22248;SDS011;67538;52.180;5.646;2023-07-22T12:20:25;9.68;;;4.90;;
22248;SDS011;67538;52.180;5.646;2023-07-22T12:22:53;12.63;;;5.43;;
22248;SDS011;67538;52.180;5.646;2023-07-22T12:25:21;8.55;;;5.03;;
22248;SDS011;67538;52.180;5.646;2023-07-22T12:27:48;10.60;;;5.47;;
22248;SDS011;67538;52.180;5.646;2023-07-22T12:30:17;11.70;;;6.30;;
22248;SDS011;67538;52.180;5.646;2023-07-22T12:32:45;10.20;;;6.75;;
22248;SDS011;67538;52.180;5.646;2023-07-22T12:35:12;13.52;;;6.63;;
22248;SDS011;67538;52.180;5.646;2023-07-22T12:37:39;14.10;;;6.73;;
22248;SDS011;67538;52.180;5.646;2023-07-22T12:40:07;14.67;;;7.57;;
22248;SDS011;67538;52.180;5.646;2023-07-22T12:42:35;18.00;;;8.43;;
22248;SDS011;67538;52.180;5.646;2023-07-22T12:45:03;16.48;;;7.40;;
22248;SDS011;67538;52.180;5.646;2023-07-22T12:47:32;13.25;;;7.32;;
22248;SDS011;67538;52.180;5.646;2023-07-22T12:49:59;17.15;;;7.30;;
22248;SDS011;67538;52.180;5.646;2023-07-22T12:52:26;14.63;;;7.70;;
22248;SDS011;67538;52.180;5.646;2023-07-22T12:54:53;13.95;;;7.13;;
22248;SDS011;67538;52.180;5.646;2023-07-22T12:57:20;12.95;;;6.88;;
22248;SDS011;67538;52.180;5.646;2023-07-22T12:59:47;12.95;;;7.00;;
22248;SDS011;67538;52.180;5.646;2023-07-22T13:02:15;14.82;;;6.95;;
22248;SDS011;67538;52.180;5.646;2023-07-22T13:04:43;12.75;;;6.55;;
22248;SDS011;67538;52.180;5.646;2023-07-22T13:07:10;10.18;;;6.32;;
22248;SDS011;67538;52.180;5.646;2023-07-22T13:09:38;11.57;;;5.72;;
22248;SDS011;67538;52.180;5.646;2023-07-22T13:12:05;11.25;;;5.80;;
22248;SDS011;67538;52.180;5.646;2023-07-22T13:14:33;11.10;;;5.80;;
22248;SDS011;67538;52.180;5.646;2023-07-22T13:17:00;10.75;;;5.68;;
22248;SDS011;67538;52.180;5.646;2023-07-22T13:19:27;11.90;;;5.72;;
22248;SDS011;67538;52.180;5.646;2023-07-22T13:21:55;10.57;;;6.18;;
22248;SDS011;67538;52.180;5.646;2023-07-22T13:24:22;10.15;;;6.00;;
22248;SDS011;67538;52.180;5.646;2023-07-22T13:26:49;11.77;;;5.75;;
22248;SDS011;67538;52.180;5.646;2023-07-22T13:29:16;11.60;;;6.10;;
22248;SDS011;67538;52.180;5.646;2023-07-22T13:31:43;11.10;;;5.78;;
22248;SDS011;67538;52.180;5.646;2023-07-22T13:34:10;12.23;;;6.18;;
22248;SDS011;67538;52.180;5.646;2023-07-22T13:36:37;11.75;;;6.30;;
22248;SDS011;67538;52.180;5.646;2023-07-22T13:39:06;10.05;;;6.65;;
22248;SDS011;67538;52.180;5.646;2023-07-22T13:41:33;14.00;;;6.60;;
22248;SDS011;67538;52.180;5.646;2023-07-22T13:44:00;14.93;;;7.55;;
22248;SDS011;67538;52.180;5.646;2023-07-22T13:46:27;14.10;;;7.43;;
22248;SDS011;67538;52.180;5.646;2023-07-22T13:48:54;14.15;;;8.35;;
22248;SDS011;67538;52.180;5.646;2023-07-22T13:51:21;15.35;;;8.98;;
22248;SDS011;67538;52.180;5.646;2023-07-22T13:53:48;23.27;;;14.13;;
22248;SDS011;67538;52.180;5.646;2023-07-22T13:56:18;24.38;;;16.27;;
22248;SDS011;67538;52.180;5.646;2023-07-22T13:58:45;24.95;;;17.65;;
22248;SDS011;67538;52.180;5.646;2023-07-22T14:01:12;17.77;;;13.43;;
22248;SDS011;67538;52.180;5.646;2023-07-22T14:03:39;17.58;;;10.68;;
22248;SDS011;67538;52.180;5.646;2023-07-22T14:06:06;18.38;;;8.43;;
22248;SDS011;67538;52.180;5.646;2023-07-22T14:08:33;13.20;;;6.05;;
22248;SDS011;67538;52.180;5.646;2023-07-22T14:11:01;11.95;;;6.38;;
22248;SDS011;67538;52.180;5.646;2023-07-22T14:13:29;13.10;;;5.77;;
22248;SDS011;67538;52.180;5.646;2023-07-22T14:15:56;8.38;;;5.03;;
22248;SDS011;67538;52.180;5.646;2023-07-22T14:18:23;10.90;;;5.38;;
22248;SDS011;67538;52.180;5.646;2023-07-22T14:20:50;11.85;;;5.35;;
22248;SDS011;67538;52.180;5.646;2023-07-22T14:23:17;12.90;;;5.07;;
22248;SDS011;67538;52.180;5.646;2023-07-22T14:25:44;8.48;;;4.40;;
22248;SDS011;67538;52.180;5.646;2023-07-22T14:28:11;9.23;;;4.40;;
22248;SDS011;67538;52.180;5.646;2023-07-22T14:30:39;14.13;;;4.50;;
22248;SDS011;67538;52.180;5.646;2023-07-22T14:33:06;9.48;;;4.35;;
22248;SDS011;67538;52.180;5.646;2023-07-22T14:35:33;8.87;;;4.30;;